sensor_id;sensor_type;location;lat;lon;timestamp;P1;durP1;ratioP1;P2;durP2;ratioP2
59756;SDS011;45631;51.962;5.974;2023-06-14T00:02:24;7.07;;;2.78;;
59756;SDS011;45631;51.962;5.974;2023-06-14T00:04:52;8.30;;;2.88;;
59756;SDS011;45631;51.962;5.974;2023-06-14T00:07:32;8.63;;;2.95;;
59756;SDS011;45631;51.962;5.974;2023-06-14T00:10:02;7.00;;;3.03;;
59756;SDS011;45631;51.962;5.974;2023-06-14T00:12:31;8.90;;;2.75;;
59756;SDS011;45631;51.962;5.974;2023-06-14T00:14:59;6.57;;;3.10;;
59756;SDS011;45631;51.962;5.974;2023-06-14T00:17:28;6.68;;;2.83;;
59756;SDS011;45631;51.962;5.974;2023-06-14T00:19:58;10.20;;;2.80;;
59756;SDS011;45631;51.962;5.974;2023-06-14T00:22:28;8.93;;;2.85;;
59756;SDS011;45631;51.962;5.974;2023-06-14T00:24:57;7.05;;;3.00;;
59756;SDS011;45631;51.962;5.974;2023-06-14T00:27:39;7.93;;;2.30;;
59756;SDS011;45631;51.962;5.974;2023-06-14T00:30:07;6.75;;;2.50;;
59756;SDS011;45631;51.962;5.974;2023-06-14T00:32:36;6.10;;;2.70;;
59756;SDS011;45631;51.962;5.974;2023-06-14T00:35:05;6.22;;;2.90;;
59756;SDS011;45631;51.962;5.974;2023-06-14T00:37:35;7.43;;;2.60;;
59756;SDS011;45631;51.962;5.974;2023-06-14T00:40:04;7.78;;;2.78;;
59756;SDS011;45631;51.962;5.974;2023-06-14T00:42:34;5.50;;;2.53;;
59756;SDS011;45631;51.962;5.974;2023-06-14T00:45:02;7.53;;;3.17;;
59756;SDS011;45631;51.962;5.974;2023-06-14T00:47:31;8.43;;;2.60;;
59756;SDS011;45631;51.962;5.974;2023-06-14T00:50:02;5.88;;;2.67;;
59756;SDS011;45631;51.962;5.974;2023-06-14T00:52:31;5.07;;;2.70;;
59756;SDS011;45631;51.962;5.974;2023-06-14T00:55:01;8.55;;;3.00;;
59756;SDS011;45631;51.962;5.974;2023-06-14T00:57:30;10.52;;;3.75;;
59756;SDS011;45631;51.962;5.974;2023-06-14T00:59:58;6.13;;;2.83;;
59756;SDS011;45631;51.962;5.974;2023-06-14T01:02:26;7.07;;;2.70;;
59756;SDS011;45631;51.962;5.974;2023-06-14T01:04:58;6.15;;;2.55;;
59756;SDS011;45631;51.962;5.974;2023-06-14T01:07:29;6.05;;;2.65;;
59756;SDS011;45631;51.962;5.974;2023-06-14T01:12:51;6.63;;;2.60;;
59756;SDS011;45631;51.962;5.974;2023-06-14T01:15:25;5.90;;;2.67;;
59756;SDS011;45631;51.962;5.974;2023-06-14T01:17:58;7.53;;;3.00;;
59756;SDS011;45631;51.962;5.974;2023-06-14T01:20:31;11.10;;;2.70;;
59756;SDS011;45631;51.962;5.974;2023-06-14T01:23:05;11.85;;;3.10;;
59756;SDS011;45631;51.962;5.974;2023-06-14T01:25:33;6.88;;;2.60;;
59756;SDS011;45631;51.962;5.974;2023-06-14T01:28:03;5.07;;;2.45;;
59756;SDS011;45631;51.962;5.974;2023-06-14T01:30:37;7.97;;;2.90;;
59756;SDS011;45631;51.962;5.974;2023-06-14T01:33:11;6.95;;;2.60;;
59756;SDS011;45631;51.962;5.974;2023-06-14T01:35:41;6.07;;;2.25;;
59756;SDS011;45631;51.962;5.974;2023-06-14T01:38:11;5.55;;;2.75;;
59756;SDS011;45631;51.962;5.974;2023-06-14T01:40:41;5.43;;;2.28;;
59756;SDS011;45631;51.962;5.974;2023-06-14T01:43:11;6.53;;;2.40;;
59756;SDS011;45631;51.962;5.974;2023-06-14T01:45:42;9.25;;;2.63;;
59756;SDS011;45631;51.962;5.974;2023-06-14T01:48:12;7.07;;;2.78;;
59756;SDS011;45631;51.962;5.974;2023-06-14T01:50:41;5.75;;;2.40;;
59756;SDS011;45631;51.962;5.974;2023-06-14T01:53:09;8.05;;;2.90;;
59756;SDS011;45631;51.962;5.974;2023-06-14T01:55:39;5.45;;;2.80;;
59756;SDS011;45631;51.962;5.974;2023-06-14T01:58:10;7.30;;;2.65;;
59756;SDS011;45631;51.962;5.974;2023-06-14T02:00:38;8.40;;;2.88;;
59756;SDS011;45631;51.962;5.974;2023-06-14T02:03:06;10.43;;;2.80;;
59756;SDS011;45631;51.962;5.974;2023-06-14T02:05:37;6.72;;;2.70;;
59756;SDS011;45631;51.962;5.974;2023-06-14T02:08:06;5.78;;;2.50;;
59756;SDS011;45631;51.962;5.974;2023-06-14T02:10:36;9.70;;;2.67;;
59756;SDS011;45631;51.962;5.974;2023-06-14T02:13:04;7.68;;;2.88;;
59756;SDS011;45631;51.962;5.974;2023-06-14T02:15:32;10.27;;;2.90;;
59756;SDS011;45631;51.962;5.974;2023-06-14T02:18:02;5.55;;;2.70;;
59756;SDS011;45631;51.962;5.974;2023-06-14T02:20:33;7.97;;;2.58;;
59756;SDS011;45631;51.962;5.974;2023-06-14T02:23:02;7.05;;;2.78;;
59756;SDS011;45631;51.962;5.974;2023-06-14T02:25:30;8.65;;;2.85;;
59756;SDS011;45631;51.962;5.974;2023-06-14T02:27:59;6.72;;;2.55;;
59756;SDS011;45631;51.962;5.974;2023-06-14T02:30:28;8.40;;;3.17;;
59756;SDS011;45631;51.962;5.974;2023-06-14T02:32:57;8.13;;;2.75;;
59756;SDS011;45631;51.962;5.974;2023-06-14T02:35:25;7.43;;;2.60;;
59756;SDS011;45631;51.962;5.974;2023-06-14T02:37:54;5.93;;;2.55;;
59756;SDS011;45631;51.962;5.974;2023-06-14T02:40:22;8.77;;;2.85;;
59756;SDS011;45631;51.962;5.974;2023-06-14T02:42:51;6.35;;;2.70;;
59756;SDS011;45631;51.962;5.974;2023-06-14T02:45:22;7.68;;;2.50;;
59756;SDS011;45631;51.962;5.974;2023-06-14T02:47:52;8.77;;;2.90;;
59756;SDS011;45631;51.962;5.974;2023-06-14T02:50:22;5.80;;;2.55;;
59756;SDS011;45631;51.962;5.974;2023-06-14T02:52:52;6.70;;;3.03;;
59756;SDS011;45631;51.962;5.974;2023-06-14T02:55:22;11.60;;;2.85;;
59756;SDS011;45631;51.962;5.974;2023-06-14T02:57:50;6.32;;;2.50;;
59756;SDS011;45631;51.962;5.974;2023-06-14T03:00:20;5.07;;;2.53;;
59756;SDS011;45631;51.962;5.974;2023-06-14T03:02:49;8.57;;;3.00;;
59756;SDS011;45631;51.962;5.974;2023-06-14T03:05:19;5.38;;;2.75;;
59756;SDS011;45631;51.962;5.974;2023-06-14T03:07:48;5.63;;;2.40;;
59756;SDS011;45631;51.962;5.974;2023-06-14T03:10:17;6.70;;;2.58;;
59756;SDS011;45631;51.962;5.974;2023-06-14T03:12:45;8.98;;;2.88;;
59756;SDS011;45631;51.962;5.974;2023-06-14T03:15:13;12.48;;;2.83;;
59756;SDS011;45631;51.962;5.974;2023-06-14T03:17:43;7.75;;;2.55;;
59756;SDS011;45631;51.962;5.974;2023-06-14T03:20:12;5.57;;;2.50;;
59756;SDS011;45631;51.962;5.974;2023-06-14T03:22:42;7.10;;;2.88;;
59756;SDS011;45631;51.962;5.974;2023-06-14T03:25:12;6.88;;;2.65;;
59756;SDS011;45631;51.962;5.974;2023-06-14T03:27:41;9.43;;;2.50;;
59756;SDS011;45631;51.962;5.974;2023-06-14T03:30:13;6.13;;;2.50;;
59756;SDS011;45631;51.962;5.974;2023-06-14T03:32:46;8.02;;;2.65;;
59756;SDS011;45631;51.962;5.974;2023-06-14T03:35:14;7.80;;;2.53;;
59756;SDS011;45631;51.962;5.974;2023-06-14T03:37:44;8.43;;;2.50;;
59756;SDS011;45631;51.962;5.974;2023-06-14T03:40:12;5.28;;;2.67;;
59756;SDS011;45631;51.962;5.974;2023-06-14T03:42:43;8.05;;;2.65;;
59756;SDS011;45631;51.962;5.974;2023-06-14T03:45:11;6.60;;;2.58;;
59756;SDS011;45631;51.962;5.974;2023-06-14T03:47:39;6.70;;;2.40;;
59756;SDS011;45631;51.962;5.974;2023-06-14T03:50:09;6.00;;;2.60;;
59756;SDS011;45631;51.962;5.974;2023-06-14T03:52:39;5.32;;;2.45;;
59756;SDS011;45631;51.962;5.974;2023-06-14T03:55:09;9.55;;;2.95;;
59756;SDS011;45631;51.962;5.974;2023-06-14T03:57:42;7.50;;;2.58;;
59756;SDS011;45631;51.962;5.974;2023-06-14T04:00:11;6.80;;;2.70;;
59756;SDS011;45631;51.962;5.974;2023-06-14T04:02:39;7.18;;;2.90;;
59756;SDS011;45631;51.962;5.974;2023-06-14T04:05:10;5.47;;;2.75;;
59756;SDS011;45631;51.962;5.974;2023-06-14T04:07:38;7.88;;;2.60;;
59756;SDS011;45631;51.962;5.974;2023-06-14T04:10:11;5.47;;;2.53;;
59756;SDS011;45631;51.962;5.974;2023-06-14T04:12:40;7.18;;;2.45;;
59756;SDS011;45631;51.962;5.974;2023-06-14T04:15:10;6.28;;;2.60;;
59756;SDS011;45631;51.962;5.974;2023-06-14T04:17:47;8.05;;;2.90;;
59756;SDS011;45631;51.962;5.974;2023-06-14T04:20:16;6.75;;;2.65;;
59756;SDS011;45631;51.962;5.974;2023-06-14T04:22:44;9.48;;;2.65;;
59756;SDS011;45631;51.962;5.974;2023-06-14T04:25:13;5.50;;;2.70;;
59756;SDS011;45631;51.962;5.974;2023-06-14T04:27:41;5.43;;;2.70;;
59756;SDS011;45631;51.962;5.974;2023-06-14T04:30:10;5.25;;;2.70;;
59756;SDS011;45631;51.962;5.974;2023-06-14T04:32:39;7.55;;;2.75;;
59756;SDS011;45631;51.962;5.974;2023-06-14T04:35:09;6.13;;;2.50;;
59756;SDS011;45631;51.962;5.974;2023-06-14T04:37:39;7.97;;;3.00;;
59756;SDS011;45631;51.962;5.974;2023-06-14T04:40:08;8.18;;;3.00;;
59756;SDS011;45631;51.962;5.974;2023-06-14T04:42:38;6.57;;;2.50;;
59756;SDS011;45631;51.962;5.974;2023-06-14T04:45:07;6.25;;;2.53;;
59756;SDS011;45631;51.962;5.974;2023-06-14T04:47:36;6.90;;;2.67;;
59756;SDS011;45631;51.962;5.974;2023-06-14T04:50:05;5.55;;;2.65;;
59756;SDS011;45631;51.962;5.974;2023-06-14T04:52:33;5.00;;;2.70;;
59756;SDS011;45631;51.962;5.974;2023-06-14T04:55:03;6.95;;;2.40;;
59756;SDS011;45631;51.962;5.974;2023-06-14T04:57:32;9.35;;;2.90;;
59756;SDS011;45631;51.962;5.974;2023-06-14T05:00:01;6.15;;;2.85;;
59756;SDS011;45631;51.962;5.974;2023-06-14T05:02:33;7.32;;;2.83;;
59756;SDS011;45631;51.962;5.974;2023-06-14T05:05:02;6.85;;;2.63;;
59756;SDS011;45631;51.962;5.974;2023-06-14T05:07:33;7.80;;;2.83;;
59756;SDS011;45631;51.962;5.974;2023-06-14T05:10:05;7.18;;;2.83;;
59756;SDS011;45631;51.962;5.974;2023-06-14T05:12:34;5.28;;;2.80;;
59756;SDS011;45631;51.962;5.974;2023-06-14T05:15:03;6.55;;;2.78;;
59756;SDS011;45631;51.962;5.974;2023-06-14T05:17:31;8.02;;;2.90;;
59756;SDS011;45631;51.962;5.974;2023-06-14T05:20:02;6.20;;;2.60;;
59756;SDS011;45631;51.962;5.974;2023-06-14T05:22:31;7.00;;;3.10;;
59756;SDS011;45631;51.962;5.974;2023-06-14T05:25:03;5.22;;;2.67;;
59756;SDS011;45631;51.962;5.974;2023-06-14T05:27:32;7.50;;;2.80;;
59756;SDS011;45631;51.962;5.974;2023-06-14T05:30:04;7.10;;;2.75;;
59756;SDS011;45631;51.962;5.974;2023-06-14T05:32:33;9.73;;;2.90;;
59756;SDS011;45631;51.962;5.974;2023-06-14T05:35:01;6.35;;;2.92;;
59756;SDS011;45631;51.962;5.974;2023-06-14T05:37:30;6.43;;;2.88;;
59756;SDS011;45631;51.962;5.974;2023-06-14T05:39:58;6.80;;;3.08;;
59756;SDS011;45631;51.962;5.974;2023-06-14T05:42:28;7.80;;;2.83;;
59756;SDS011;45631;51.962;5.974;2023-06-14T05:44:56;7.13;;;2.75;;
59756;SDS011;45631;51.962;5.974;2023-06-14T05:47:27;9.63;;;3.28;;
59756;SDS011;45631;51.962;5.974;2023-06-14T05:49:55;6.45;;;2.90;;
59756;SDS011;45631;51.962;5.974;2023-06-14T05:52:24;5.75;;;3.15;;
59756;SDS011;45631;51.962;5.974;2023-06-14T05:54:52;6.32;;;2.90;;
59756;SDS011;45631;51.962;5.974;2023-06-14T05:57:21;8.27;;;2.60;;
59756;SDS011;45631;51.962;5.974;2023-06-14T05:59:50;9.30;;;3.03;;
59756;SDS011;45631;51.962;5.974;2023-06-14T06:02:18;6.50;;;2.95;;
59756;SDS011;45631;51.962;5.974;2023-06-14T06:04:49;5.68;;;2.50;;
59756;SDS011;45631;51.962;5.974;2023-06-14T06:07:17;4.78;;;2.58;;
59756;SDS011;45631;51.962;5.974;2023-06-14T06:09:46;5.90;;;2.72;;
59756;SDS011;45631;51.962;5.974;2023-06-14T06:12:14;6.70;;;2.72;;
59756;SDS011;45631;51.962;5.974;2023-06-14T06:14:42;5.78;;;2.75;;
59756;SDS011;45631;51.962;5.974;2023-06-14T06:17:12;6.38;;;2.83;;
59756;SDS011;45631;51.962;5.974;2023-06-14T06:19:40;6.82;;;2.72;;
59756;SDS011;45631;51.962;5.974;2023-06-14T06:22:08;7.60;;;3.00;;
59756;SDS011;45631;51.962;5.974;2023-06-14T06:24:36;14.65;;;3.10;;
59756;SDS011;45631;51.962;5.974;2023-06-14T06:27:04;6.25;;;2.90;;
59756;SDS011;45631;51.962;5.974;2023-06-14T06:29:34;7.00;;;2.90;;
59756;SDS011;45631;51.962;5.974;2023-06-14T06:32:02;7.43;;;3.15;;
59756;SDS011;45631;51.962;5.974;2023-06-14T06:34:33;6.55;;;2.67;;
59756;SDS011;45631;51.962;5.974;2023-06-14T06:37:02;7.93;;;3.00;;
59756;SDS011;45631;51.962;5.974;2023-06-14T06:39:30;8.15;;;2.65;;
59756;SDS011;45631;51.962;5.974;2023-06-14T06:41:58;9.73;;;2.92;;
59756;SDS011;45631;51.962;5.974;2023-06-14T06:44:26;5.30;;;2.83;;
59756;SDS011;45631;51.962;5.974;2023-06-14T06:46:54;6.63;;;2.72;;
59756;SDS011;45631;51.962;5.974;2023-06-14T06:49:23;5.88;;;2.80;;
59756;SDS011;45631;51.962;5.974;2023-06-14T06:52:03;5.90;;;2.50;;
59756;SDS011;45631;51.962;5.974;2023-06-14T06:54:33;7.40;;;2.80;;
59756;SDS011;45631;51.962;5.974;2023-06-14T06:57:01;6.15;;;2.90;;
59756;SDS011;45631;51.962;5.974;2023-06-14T06:59:30;6.63;;;2.53;;
59756;SDS011;45631;51.962;5.974;2023-06-14T07:01:58;4.78;;;2.40;;
59756;SDS011;45631;51.962;5.974;2023-06-14T07:04:27;7.60;;;2.88;;
59756;SDS011;45631;51.962;5.974;2023-06-14T07:06:55;8.93;;;2.90;;
59756;SDS011;45631;51.962;5.974;2023-06-14T07:09:25;8.63;;;2.47;;
59756;SDS011;45631;51.962;5.974;2023-06-14T07:11:53;5.38;;;2.28;;
59756;SDS011;45631;51.962;5.974;2023-06-14T07:14:21;5.20;;;2.38;;
59756;SDS011;45631;51.962;5.974;2023-06-14T07:16:50;4.88;;;2.08;;
59756;SDS011;45631;51.962;5.974;2023-06-14T07:19:19;6.13;;;2.15;;
59756;SDS011;45631;51.962;5.974;2023-06-14T07:21:47;6.05;;;2.20;;
59756;SDS011;45631;51.962;5.974;2023-06-14T07:24:15;5.78;;;2.20;;
59756;SDS011;45631;51.962;5.974;2023-06-14T07:26:45;5.35;;;2.10;;
59756;SDS011;45631;51.962;5.974;2023-06-14T07:29:14;4.47;;;2.22;;
59756;SDS011;45631;51.962;5.974;2023-06-14T07:31:43;6.82;;;2.35;;
59756;SDS011;45631;51.962;5.974;2023-06-14T07:34:11;4.13;;;1.80;;
59756;SDS011;45631;51.962;5.974;2023-06-14T07:36:39;6.40;;;2.10;;
59756;SDS011;45631;51.962;5.974;2023-06-14T07:39:07;4.60;;;1.75;;
59756;SDS011;45631;51.962;5.974;2023-06-14T07:41:36;5.15;;;1.83;;
59756;SDS011;45631;51.962;5.974;2023-06-14T07:44:06;5.10;;;1.92;;
59756;SDS011;45631;51.962;5.974;2023-06-14T07:46:36;5.07;;;1.60;;
59756;SDS011;45631;51.962;5.974;2023-06-14T07:49:04;4.68;;;1.73;;
59756;SDS011;45631;51.962;5.974;2023-06-14T07:51:33;3.20;;;1.30;;
59756;SDS011;45631;51.962;5.974;2023-06-14T07:54:01;5.75;;;1.88;;
59756;SDS011;45631;51.962;5.974;2023-06-14T07:56:30;3.45;;;1.40;;
59756;SDS011;45631;51.962;5.974;2023-06-14T07:58:58;5.03;;;1.95;;
59756;SDS011;45631;51.962;5.974;2023-06-14T08:01:27;4.15;;;1.58;;
59756;SDS011;45631;51.962;5.974;2023-06-14T08:03:55;4.00;;;1.70;;
59756;SDS011;45631;51.962;5.974;2023-06-14T08:06:24;4.63;;;1.73;;
59756;SDS011;45631;51.962;5.974;2023-06-14T08:08:52;4.63;;;2.00;;
59756;SDS011;45631;51.962;5.974;2023-06-14T08:11:21;3.63;;;1.77;;
59756;SDS011;45631;51.962;5.974;2023-06-14T08:13:50;3.05;;;1.48;;
59756;SDS011;45631;51.962;5.974;2023-06-14T08:16:18;3.50;;;1.90;;
59756;SDS011;45631;51.962;5.974;2023-06-14T08:18:48;4.93;;;1.90;;
59756;SDS011;45631;51.962;5.974;2023-06-14T08:21:16;5.93;;;1.75;;
59756;SDS011;45631;51.962;5.974;2023-06-14T08:23:45;3.85;;;1.80;;
59756;SDS011;45631;51.962;5.974;2023-06-14T08:26:13;4.00;;;1.70;;
59756;SDS011;45631;51.962;5.974;2023-06-14T08:28:41;4.40;;;2.00;;
59756;SDS011;45631;51.962;5.974;2023-06-14T08:31:09;5.22;;;2.05;;
59756;SDS011;45631;51.962;5.974;2023-06-14T08:33:37;6.53;;;2.00;;
59756;SDS011;45631;51.962;5.974;2023-06-14T08:36:11;4.07;;;1.70;;
59756;SDS011;45631;51.962;5.974;2023-06-14T08:38:39;4.38;;;1.50;;
59756;SDS011;45631;51.962;5.974;2023-06-14T08:41:07;5.72;;;1.85;;
59756;SDS011;45631;51.962;5.974;2023-06-14T08:43:40;5.97;;;2.00;;
59756;SDS011;45631;51.962;5.974;2023-06-14T08:46:08;3.33;;;1.50;;
59756;SDS011;45631;51.962;5.974;2023-06-14T08:48:38;4.03;;;1.75;;
59756;SDS011;45631;51.962;5.974;2023-06-14T08:51:11;2.80;;;1.58;;
59756;SDS011;45631;51.962;5.974;2023-06-14T08:56:10;3.63;;;1.60;;
59756;SDS011;45631;51.962;5.974;2023-06-14T08:58:40;5.78;;;1.80;;
59756;SDS011;45631;51.962;5.974;2023-06-14T09:01:11;4.63;;;1.80;;
59756;SDS011;45631;51.962;5.974;2023-06-14T09:03:41;4.40;;;1.80;;
59756;SDS011;45631;51.962;5.974;2023-06-14T09:06:11;5.00;;;1.77;;
59756;SDS011;45631;51.962;5.974;2023-06-14T09:08:41;4.15;;;1.50;;
59756;SDS011;45631;51.962;5.974;2023-06-14T09:11:10;4.60;;;1.80;;
59756;SDS011;45631;51.962;5.974;2023-06-14T09:13:40;5.35;;;1.60;;
59756;SDS011;45631;51.962;5.974;2023-06-14T09:16:09;5.07;;;1.73;;
59756;SDS011;45631;51.962;5.974;2023-06-14T09:18:38;4.18;;;1.83;;
59756;SDS011;45631;51.962;5.974;2023-06-14T09:21:07;3.97;;;1.92;;
59756;SDS011;45631;51.962;5.974;2023-06-14T09:23:37;2.53;;;1.30;;
59756;SDS011;45631;51.962;5.974;2023-06-14T09:26:09;4.85;;;1.70;;
59756;SDS011;45631;51.962;5.974;2023-06-14T09:28:41;3.33;;;1.50;;
59756;SDS011;45631;51.962;5.974;2023-06-14T09:31:10;7.55;;;1.77;;
59756;SDS011;45631;51.962;5.974;2023-06-14T09:33:41;4.68;;;1.60;;
59756;SDS011;45631;51.962;5.974;2023-06-14T09:36:15;4.63;;;1.63;;
59756;SDS011;45631;51.962;5.974;2023-06-14T09:38:52;3.78;;;1.40;;
59756;SDS011;45631;51.962;5.974;2023-06-14T09:41:27;3.13;;;1.50;;
59756;SDS011;45631;51.962;5.974;2023-06-14T09:43:59;4.45;;;1.55;;
59756;SDS011;45631;51.962;5.974;2023-06-14T09:46:34;5.20;;;1.60;;
59756;SDS011;45631;51.962;5.974;2023-06-14T09:49:03;4.15;;;1.70;;
59756;SDS011;45631;51.962;5.974;2023-06-14T09:51:33;3.65;;;1.45;;
59756;SDS011;45631;51.962;5.974;2023-06-14T09:54:04;4.32;;;1.42;;
59756;SDS011;45631;51.962;5.974;2023-06-14T09:56:36;3.10;;;1.20;;
59756;SDS011;45631;51.962;5.974;2023-06-14T09:59:05;3.55;;;1.60;;
59756;SDS011;45631;51.962;5.974;2023-06-14T10:01:35;7.47;;;2.05;;
59756;SDS011;45631;51.962;5.974;2023-06-14T10:04:07;2.05;;;1.17;;
59756;SDS011;45631;51.962;5.974;2023-06-14T10:06:39;4.43;;;1.45;;
59756;SDS011;45631;51.962;5.974;2023-06-14T10:09:10;3.80;;;1.38;;
59756;SDS011;45631;51.962;5.974;2023-06-14T10:11:38;2.67;;;1.58;;
59756;SDS011;45631;51.962;5.974;2023-06-14T10:14:11;6.63;;;1.50;;
59756;SDS011;45631;51.962;5.974;2023-06-14T10:16:42;4.07;;;1.30;;
59756;SDS011;45631;51.962;5.974;2023-06-14T10:19:18;5.25;;;1.60;;
59756;SDS011;45631;51.962;5.974;2023-06-14T10:21:51;3.95;;;1.40;;
59756;SDS011;45631;51.962;5.974;2023-06-14T10:24:28;4.13;;;1.40;;
59756;SDS011;45631;51.962;5.974;2023-06-14T10:27:00;3.03;;;1.20;;
59756;SDS011;45631;51.962;5.974;2023-06-14T10:29:28;4.40;;;1.70;;
59756;SDS011;45631;51.962;5.974;2023-06-14T10:31:59;3.85;;;1.48;;
59756;SDS011;45631;51.962;5.974;2023-06-14T10:34:30;5.30;;;1.58;;
59756;SDS011;45631;51.962;5.974;2023-06-14T10:37:03;6.22;;;1.80;;
59756;SDS011;45631;51.962;5.974;2023-06-14T10:39:37;5.15;;;1.30;;
59756;SDS011;45631;51.962;5.974;2023-06-14T10:42:07;4.30;;;1.48;;
59756;SDS011;45631;51.962;5.974;2023-06-14T10:44:40;3.72;;;1.70;;
59756;SDS011;45631;51.962;5.974;2023-06-14T10:47:10;5.18;;;1.40;;
59756;SDS011;45631;51.962;5.974;2023-06-14T10:49:49;4.43;;;1.35;;
59756;SDS011;45631;51.962;5.974;2023-06-14T10:52:23;2.08;;;1.30;;
59756;SDS011;45631;51.962;5.974;2023-06-14T10:54:56;2.20;;;1.40;;
59756;SDS011;45631;51.962;5.974;2023-06-14T10:57:33;6.22;;;2.17;;
59756;SDS011;45631;51.962;5.974;2023-06-14T11:00:07;7.68;;;1.50;;
59756;SDS011;45631;51.962;5.974;2023-06-14T11:02:52;6.53;;;1.67;;
59756;SDS011;45631;51.962;5.974;2023-06-14T11:05:44;6.50;;;1.83;;
59756;SDS011;45631;51.962;5.974;2023-06-14T11:11:14;2.65;;;1.45;;
59756;SDS011;45631;51.962;5.974;2023-06-14T11:13:43;5.82;;;1.77;;
59756;SDS011;45631;51.962;5.974;2023-06-14T11:16:15;5.93;;;1.70;;
59756;SDS011;45631;51.962;5.974;2023-06-14T11:18:48;3.80;;;1.70;;
59756;SDS011;45631;51.962;5.974;2023-06-14T11:21:17;4.53;;;1.50;;
59756;SDS011;45631;51.962;5.974;2023-06-14T11:23:49;5.85;;;1.83;;
59756;SDS011;45631;51.962;5.974;2023-06-14T11:26:26;4.93;;;1.50;;
59756;SDS011;45631;51.962;5.974;2023-06-14T11:28:56;3.92;;;1.42;;
59756;SDS011;45631;51.962;5.974;2023-06-14T11:31:25;6.65;;;1.60;;
59756;SDS011;45631;51.962;5.974;2023-06-14T11:33:54;4.07;;;1.50;;
59756;SDS011;45631;51.962;5.974;2023-06-14T11:36:26;3.03;;;1.50;;
59756;SDS011;45631;51.962;5.974;2023-06-14T11:39:00;4.43;;;1.55;;
59756;SDS011;45631;51.962;5.974;2023-06-14T11:41:35;3.70;;;1.52;;
59756;SDS011;45631;51.962;5.974;2023-06-14T11:44:05;5.00;;;1.48;;
59756;SDS011;45631;51.962;5.974;2023-06-14T11:46:36;4.75;;;1.35;;
59756;SDS011;45631;51.962;5.974;2023-06-14T11:49:06;2.85;;;1.50;;
59756;SDS011;45631;51.962;5.974;2023-06-14T11:51:36;6.63;;;1.70;;
59756;SDS011;45631;51.962;5.974;2023-06-14T11:54:05;6.85;;;1.67;;
59756;SDS011;45631;51.962;5.974;2023-06-14T11:56:36;3.28;;;1.67;;
59756;SDS011;45631;51.962;5.974;2023-06-14T11:59:04;2.03;;;1.10;;
59756;SDS011;45631;51.962;5.974;2023-06-14T12:01:36;4.63;;;1.40;;
59756;SDS011;45631;51.962;5.974;2023-06-14T12:04:06;3.65;;;1.40;;
59756;SDS011;45631;51.962;5.974;2023-06-14T12:06:37;2.87;;;1.50;;
59756;SDS011;45631;51.962;5.974;2023-06-14T12:09:07;3.40;;;1.50;;
59756;SDS011;45631;51.962;5.974;2023-06-14T12:11:41;2.70;;;1.40;;
59756;SDS011;45631;51.962;5.974;2023-06-14T12:14:09;4.25;;;1.40;;
59756;SDS011;45631;51.962;5.974;2023-06-14T12:16:39;4.07;;;1.38;;
59756;SDS011;45631;51.962;5.974;2023-06-14T12:19:09;4.18;;;1.40;;
59756;SDS011;45631;51.962;5.974;2023-06-14T12:21:39;2.45;;;1.25;;
59756;SDS011;45631;51.962;5.974;2023-06-14T12:24:08;2.15;;;1.30;;
59756;SDS011;45631;51.962;5.974;2023-06-14T12:26:39;5.20;;;1.35;;
59756;SDS011;45631;51.962;5.974;2023-06-14T12:29:09;5.78;;;1.52;;
59756;SDS011;45631;51.962;5.974;2023-06-14T12:31:39;3.20;;;1.50;;
59756;SDS011;45631;51.962;5.974;2023-06-14T12:34:08;4.00;;;1.40;;
59756;SDS011;45631;51.962;5.974;2023-06-14T12:36:37;6.28;;;1.50;;
59756;SDS011;45631;51.962;5.974;2023-06-14T12:39:10;4.00;;;1.40;;
59756;SDS011;45631;51.962;5.974;2023-06-14T12:41:42;3.17;;;1.40;;
59756;SDS011;45631;51.962;5.974;2023-06-14T12:44:11;4.22;;;1.23;;
59756;SDS011;45631;51.962;5.974;2023-06-14T12:46:39;2.95;;;1.33;;
59756;SDS011;45631;51.962;5.974;2023-06-14T12:49:09;3.20;;;1.42;;
59756;SDS011;45631;51.962;5.974;2023-06-14T12:51:38;2.33;;;1.30;;
59756;SDS011;45631;51.962;5.974;2023-06-14T12:54:07;2.45;;;1.30;;
59756;SDS011;45631;51.962;5.974;2023-06-14T12:56:35;2.25;;;1.30;;
59756;SDS011;45631;51.962;5.974;2023-06-14T12:59:05;3.30;;;1.10;;
59756;SDS011;45631;51.962;5.974;2023-06-14T13:01:37;3.65;;;1.33;;
59756;SDS011;45631;51.962;5.974;2023-06-14T13:04:06;3.55;;;1.00;;
59756;SDS011;45631;51.962;5.974;2023-06-14T13:06:34;3.13;;;1.10;;
59756;SDS011;45631;51.962;5.974;2023-06-14T13:09:02;3.08;;;1.10;;
59756;SDS011;45631;51.962;5.974;2023-06-14T13:11:31;3.38;;;1.30;;
59756;SDS011;45631;51.962;5.974;2023-06-14T13:13:59;3.25;;;1.20;;
59756;SDS011;45631;51.962;5.974;2023-06-14T13:16:48;3.10;;;0.95;;
59756;SDS011;45631;51.962;5.974;2023-06-14T13:19:16;1.77;;;1.10;;
59756;SDS011;45631;51.962;5.974;2023-06-14T13:21:48;2.65;;;1.10;;
59756;SDS011;45631;51.962;5.974;2023-06-14T13:24:16;3.38;;;1.10;;
59756;SDS011;45631;51.962;5.974;2023-06-14T13:26:44;2.53;;;1.10;;
59756;SDS011;45631;51.962;5.974;2023-06-14T13:29:13;5.03;;;1.10;;
59756;SDS011;45631;51.962;5.974;2023-06-14T13:31:41;2.05;;;1.05;;
59756;SDS011;45631;51.962;5.974;2023-06-14T13:34:10;2.47;;;1.08;;
59756;SDS011;45631;51.962;5.974;2023-06-14T13:36:39;3.30;;;1.10;;
59756;SDS011;45631;51.962;5.974;2023-06-14T13:39:07;2.35;;;0.90;;
59756;SDS011;45631;51.962;5.974;2023-06-14T13:41:35;3.75;;;1.25;;
59756;SDS011;45631;51.962;5.974;2023-06-14T13:44:04;1.50;;;0.90;;
59756;SDS011;45631;51.962;5.974;2023-06-14T13:46:32;3.22;;;1.10;;
59756;SDS011;45631;51.962;5.974;2023-06-14T13:49:00;5.13;;;1.20;;
59756;SDS011;45631;51.962;5.974;2023-06-14T13:51:30;5.68;;;1.20;;
59756;SDS011;45631;51.962;5.974;2023-06-14T13:53:58;4.45;;;1.20;;
59756;SDS011;45631;51.962;5.974;2023-06-14T13:56:27;2.42;;;1.17;;
59756;SDS011;45631;51.962;5.974;2023-06-14T13:58:56;6.13;;;1.33;;
59756;SDS011;45631;51.962;5.974;2023-06-14T14:01:24;3.95;;;1.08;;
59756;SDS011;45631;51.962;5.974;2023-06-14T14:03:55;3.10;;;1.38;;
59756;SDS011;45631;51.962;5.974;2023-06-14T14:06:25;3.47;;;1.17;;
59756;SDS011;45631;51.962;5.974;2023-06-14T14:08:54;5.70;;;1.20;;
59756;SDS011;45631;51.962;5.974;2023-06-14T14:11:22;2.38;;;1.10;;
59756;SDS011;45631;51.962;5.974;2023-06-14T14:13:51;2.10;;;1.10;;
59756;SDS011;45631;51.962;5.974;2023-06-14T14:16:19;3.45;;;1.20;;
59756;SDS011;45631;51.962;5.974;2023-06-14T14:18:47;2.88;;;1.10;;
59756;SDS011;45631;51.962;5.974;2023-06-14T14:21:15;3.42;;;1.13;;
59756;SDS011;45631;51.962;5.974;2023-06-14T14:23:43;3.28;;;1.20;;
59756;SDS011;45631;51.962;5.974;2023-06-14T14:26:16;4.68;;;1.10;;
59756;SDS011;45631;51.962;5.974;2023-06-14T14:28:44;5.00;;;1.30;;
59756;SDS011;45631;51.962;5.974;2023-06-14T14:31:12;3.35;;;1.15;;
59756;SDS011;45631;51.962;5.974;2023-06-14T14:33:40;3.28;;;1.10;;
59756;SDS011;45631;51.962;5.974;2023-06-14T14:36:08;2.65;;;1.10;;
59756;SDS011;45631;51.962;5.974;2023-06-14T14:38:37;2.38;;;1.00;;
59756;SDS011;45631;51.962;5.974;2023-06-14T14:41:05;5.32;;;1.10;;
59756;SDS011;45631;51.962;5.974;2023-06-14T14:43:36;3.53;;;1.00;;
59756;SDS011;45631;51.962;5.974;2023-06-14T14:46:05;1.95;;;1.00;;
59756;SDS011;45631;51.962;5.974;2023-06-14T14:48:33;3.63;;;1.30;;
59756;SDS011;45631;51.962;5.974;2023-06-14T14:51:01;2.72;;;1.02;;
59756;SDS011;45631;51.962;5.974;2023-06-14T14:53:29;3.13;;;1.45;;
59756;SDS011;45631;51.962;5.974;2023-06-14T14:55:57;2.05;;;1.20;;
59756;SDS011;45631;51.962;5.974;2023-06-14T14:58:26;2.40;;;1.38;;
59756;SDS011;45631;51.962;5.974;2023-06-14T15:00:55;4.75;;;1.40;;
59756;SDS011;45631;51.962;5.974;2023-06-14T15:03:23;2.55;;;1.23;;
59756;SDS011;45631;51.962;5.974;2023-06-14T15:05:52;1.40;;;1.00;;
59756;SDS011;45631;51.962;5.974;2023-06-14T15:08:20;4.55;;;1.60;;
59756;SDS011;45631;51.962;5.974;2023-06-14T15:10:48;3.22;;;1.52;;
59756;SDS011;45631;51.962;5.974;2023-06-14T15:13:16;5.07;;;3.05;;